SAB575 EBBR-GUCY
Flight info
| Callsign | SAB575 |
|---|---|
| Flight time | N/A |
| Altitude | 37000 |
| Route | CIV N872 LESDO DCT KOVIN DCT DUCRA UM728 RESMI UN857 DISAK DCT ARKIP DCT ARNAV DCT LMG DCT UVELI DCT OSMOB DCT VAVIX DCT NETUK DCT PPN DCT NOLSA DCT ALEPO DCT VASUM DCT BANEV DCT BAN DCT PINAR DCT CJN L27 BLN DCT MGA DCT PIMOS DCT GALTO UN869 PELAX UB11 MABAP DCT BULIS/N0467F390 UM372 BUMBI DCT DIRNO RALUN1B |
| Aircraft | A343/H-SDE2E3FGHIJ4J5M1RWXY/LB1D1 |
Departure
| Time | 2026-05-01 15:22 |
|---|---|
| Airport | Brussels Airport (EBBR) |
Arrival
| Time | N/A |
|---|---|
| Airport | Ahmed Sékou Touré International Airport (GUCY) |
| Time | Latitude | Longitude | Altitude | Speed | Heading |
|---|---|---|---|---|---|
| 2026-05-01 14:56 | 50.90193 | 4.49128 | 135 ft | 0 kts | 155° |
| 2026-05-01 15:12 | 50.90209 | 4.49117 | 130 ft | 4 kts | 153° |
| 2026-05-01 15:12 | 50.90232 | 4.49095 | 132 ft | 4 kts | 140° |
| 2026-05-01 15:13 | 50.90247 | 4.49050 | 131 ft | 1 kts | 65° |
| 2026-05-01 15:16 | 50.90256 | 4.49079 | 126 ft | 5 kts | 65° |
| 2026-05-01 15:16 | 50.90304 | 4.49243 | 127 ft | 12 kts | 65° |
| 2026-05-01 15:17 | 50.90396 | 4.49551 | 123 ft | 15 kts | 48° |
| 2026-05-01 15:18 | 50.90771 | 4.49722 | 127 ft | 23 kts | 14° |
| 2026-05-01 15:18 | 50.90907 | 4.49780 | 125 ft | 12 kts | 19° |
| 2026-05-01 15:19 | 50.91117 | 4.49927 | 121 ft | 7 kts | 326° |
| 2026-05-01 15:19 | 50.91114 | 4.49801 | 119 ft | 3 kts | 248° |
| 2026-05-01 15:19 | 50.91110 | 4.49786 | 118 ft | 0 kts | 247° |
| 2026-05-01 15:20 | 50.91105 | 4.49766 | 118 ft | 2 kts | 247° |
| 2026-05-01 15:20 | 50.91100 | 4.49749 | 119 ft | 2 kts | 247° |
| 2026-05-01 15:20 | 50.91090 | 4.49712 | 121 ft | 11 kts | 245° |
| 2026-05-01 15:21 | 50.91002 | 4.49414 | 120 ft | 56 kts | 245° |
| 2026-05-01 15:21 | 50.90763 | 4.48590 | 120 ft | 107 kts | 245° |
| 2026-05-01 15:21 | 50.90395 | 4.47305 | 125 ft | 147 kts | 246° |
| 2026-05-01 15:21 | 50.89939 | 4.45692 | 366 ft | 163 kts | 244° |
| 2026-05-01 15:22 | 50.89379 | 4.42416 | 1260 ft | 171 kts | 284° |
| 2026-05-01 15:22 | 50.89773 | 4.41274 | 1358 ft | 190 kts | 307° |
| 2026-05-01 15:22 | 50.90647 | 4.38738 | 1872 ft | 209 kts | 274° |
| 2026-05-01 15:23 | 50.90499 | 4.36331 | 2150 ft | 233 kts | 259° |
| 2026-05-01 15:23 | 50.90258 | 4.33760 | 2632 ft | 251 kts | 260° |
| 2026-05-01 15:23 | 50.90037 | 4.31859 | 3135 ft | 253 kts | 251° |
| 2026-05-01 15:23 | 50.89292 | 4.29367 | 4112 ft | 250 kts | 232° |
| 2026-05-01 15:24 | 50.87641 | 4.26821 | 5222 ft | 256 kts | 222° |
| 2026-05-01 15:24 | 50.86340 | 4.24871 | 6057 ft | 259 kts | 224° |
| 2026-05-01 15:24 | 50.85460 | 4.23513 | 6619 ft | 262 kts | 223° |
| 2026-05-01 15:24 | 50.84143 | 4.21531 | 7379 ft | 266 kts | 222° |
| 2026-05-01 15:25 | 50.82314 | 4.18842 | 8454 ft | 270 kts | 221° |
| 2026-05-01 15:25 | 50.81393 | 4.17507 | 9002 ft | 272 kts | 221° |
| 2026-05-01 15:25 | 50.79987 | 4.15477 | 9803 ft | 275 kts | 220° |
| 2026-05-01 15:25 | 50.78562 | 4.13429 | 10498 ft | 280 kts | 220° |
| 2026-05-01 15:26 | 50.77081 | 4.11309 | 10856 ft | 297 kts | 220° |
| 2026-05-01 15:26 | 50.75502 | 4.09053 | 11189 ft | 313 kts | 220° |
| 2026-05-01 15:26 | 50.73845 | 4.06687 | 11509 ft | 328 kts | 220° |
| 2026-05-01 15:26 | 50.72113 | 4.04214 | 11812 ft | 344 kts | 220° |
| 2026-05-01 15:27 | 50.70306 | 4.01633 | 12174 ft | 356 kts | 220° |
| 2026-05-01 15:27 | 50.68443 | 3.98980 | 12712 ft | 363 kts | 220° |
| 2026-05-01 15:27 | 50.66581 | 3.96331 | 13344 ft | 368 kts | 220° |
| 2026-05-01 15:28 | 50.62737 | 3.90871 | 14576 ft | 376 kts | 220° |
| 2026-05-01 15:28 | 50.60788 | 3.88106 | 15165 ft | 380 kts | 220° |
| 2026-05-01 15:28 | 50.58782 | 3.85277 | 15758 ft | 384 kts | 219° |
| 2026-05-01 15:29 | 50.54253 | 3.80873 | 16873 ft | 389 kts | 204° |
| 2026-05-01 15:29 | 50.51773 | 3.79120 | 17465 ft | 392 kts | 202° |
| 2026-05-01 15:29 | 50.46676 | 3.75808 | 18579 ft | 400 kts | 201° |
| 2026-05-01 15:30 | 50.42370 | 3.72999 | 19407 ft | 406 kts | 201° |
| 2026-05-01 15:31 | 50.30957 | 3.65303 | 21624 ft | 418 kts | 201° |
| 2026-05-01 15:31 | 50.25573 | 3.61666 | 22579 ft | 424 kts | 201° |
| 2026-05-01 15:32 | 50.20123 | 3.58000 | 23505 ft | 430 kts | 201° |
| 2026-05-01 15:32 | 50.14598 | 3.54283 | 24278 ft | 435 kts | 201° |
| 2026-05-01 15:33 | 50.06209 | 3.48667 | 25429 ft | 441 kts | 201° |
| 2026-05-01 15:34 | 49.97685 | 3.42985 | 26462 ft | 447 kts | 201° |